Verdel, Nebraska
Current Conditions -  °F | °C
As of 8:35 PM on Saturday 22 Nov 2014 (Local Time) from KYKN Reporting Station
Clear Clear  
Wind Chill: 50°   Ceiling: Unl
Heat Index: 50°   Visibility: 10mi
Dew Point: 37°   Wind: 21mph
Humidity: 62%   Direction: 200°SSW
Pressure: 29.46"   Gusts: 26mph
Location:  42.7565°N, 97.8594°W
Report Text: KYKN 230235Z AUTO 20018G23KT 10SM CLR 10/03 A2946 RMK AO1
Loading
Personal Weather Stations






























Interactive Weather Map New forecast layout! Learn more

10-Day Weather Forecast

Advertisements
Track Severe Weather on mobile